Time;durP1;ratioP1;P1;durP2;ratioP2;P2;SDS_P1;SDS_P2;PMS_P1;PMS_P2;Temp;Humidity;BMP_temperature;BMP_pressure;BME280_temperature;BME280_humidity;BME280_pressure;Samples;Min_cycle;Max_cycle;Signal;HPM_P1;HPM_P2
2022/06/28 00:00:36;;;;;;;16.83;7.28;;;;;;;35.84;24.10;99544.44;5060977;28;20071;-69
2022/06/28 00:03:01;;;;;;;14.27;6.63;;;;;;;35.68;24.46;99541.34;5094898;28;20048;-69
2022/06/28 00:05:27;;;;;;;20.92;7.40;;;;;;;35.58;24.75;99533.38;5077298;28;20046;-69
2022/06/28 00:07:53;;;;;;;14.88;6.68;;;;;;;35.52;24.68;99545.72;5060866;28;20035;-69
2022/06/28 00:10:19;;;;;;;15.57;7.07;;;;;;;35.56;24.92;99541.16;5094227;28;20039;-69
2022/06/28 00:12:44;;;;;;;15.68;7.35;;;;;;;35.44;24.71;99519.69;5112200;28;20111;-69
2022/06/28 00:18:16;;;;;;;10.77;6.97;;;;;;;35.48;24.69;99547.50;5041306;28;20131;-68
2022/06/28 00:20:42;;;;;;;12.57;6.88;;;;;;;35.39;24.73;99543.91;5052688;28;20445;-70
2022/06/28 00:23:08;;;;;;;17.92;6.50;;;;;;;35.35;25.11;99554.00;5055331;28;20087;-69
2022/06/28 00:25:34;;;;;;;17.65;6.97;;;;;;;35.28;25.41;99546.16;5111100;28;20081;-68
2022/06/28 00:27:59;;;;;;;12.38;6.60;;;;;;;35.23;25.59;99562.84;5112124;28;20502;-69
2022/06/28 00:30:25;;;;;;;11.15;6.93;;;;;;;35.02;25.91;99559.06;5093735;28;20031;-69
2022/06/28 00:32:51;;;;;;;11.65;6.93;;;;;;;34.86;26.10;99546.78;5077184;28;20035;-69
2022/06/28 00:35:17;;;;;;;12.10;6.80;;;;;;;34.71;26.27;99547.22;5077136;28;20054;-68
2022/06/28 00:37:44;;;;;;;16.83;7.10;;;;;;;34.76;26.76;99563.66;5076919;28;20851;-68
2022/06/28 00:40:13;;;;;;;14.30;7.00;;;;;;;34.55;26.76;99546.03;5093705;28;20048;-69
2022/06/28 00:42:39;;;;;;;9.27;6.72;;;;;;;34.63;26.44;99558.25;5076900;28;20043;-69
2022/06/28 00:45:06;;;;;;;12.38;6.80;;;;;;;34.57;27.01;99559.50;5060287;28;20039;-69
2022/06/28 00:47:34;;;;;;;12.88;7.13;;;;;;;34.50;27.06;99559.97;5076952;28;20525;-68
2022/06/28 00:49:59;;;;;;;10.10;6.68;;;;;;;34.45;27.11;99559.25;5093034;28;20142;-69
2022/06/28 00:52:25;;;;;;;13.43;6.93;;;;;;;34.26;27.03;99531.88;5059888;28;20122;-70
2022/06/28 00:54:52;;;;;;;12.27;6.80;;;;;;;34.24;27.42;99543.22;5093167;28;20047;-68
2022/06/28 00:57:17;;;;;;;9.88;7.40;;;;;;;34.30;27.37;99557.69;5060099;28;20049;-68
2022/06/28 00:59:43;;;;;;;12.93;6.78;;;;;;;34.28;27.21;99554.44;5093112;28;20040;-69
2022/06/28 01:02:09;;;;;;;11.07;6.97;;;;;;;34.26;27.80;99575.19;5093397;28;20062;-68
2022/06/28 01:04:35;;;;;;;14.45;7.40;;;;;;;34.19;27.82;99576.44;5093347;28;20461;-68
2022/06/28 01:07:02;;;;;;;9.57;6.70;;;;;;;34.16;27.54;99576.25;5076370;28;20044;-69
2022/06/28 01:09:29;;;;;;;13.07;7.20;;;;;;;34.05;27.89;99561.09;5093143;28;20088;-69
2022/06/28 01:11:56;;;;;;;11.25;6.85;;;;;;;34.08;27.78;99552.19;5059638;28;20079;-69
2022/06/28 01:14:23;;;;;;;10.38;6.95;;;;;;;34.20;27.82;99572.56;5111685;28;20192;-69
2022/06/28 01:17:00;;;;;;;14.68;7.45;;;;;;;33.94;28.02;99570.72;5077884;28;20051;-68
2022/06/28 01:19:46;;;;;;;11.10;6.80;;;;;;;33.90;28.48;99578.84;5095252;28;20146;-69
2022/06/28 01:22:30;;;;;;;10.18;6.70;;;;;;;34.13;28.15;99585.16;5080461;28;20138;-70
2022/06/28 01:24:58;;;;;;;14.70;7.00;;;;;;;34.00;28.04;99595.09;5060162;28;20073;-69
2022/06/28 01:27:26;;;;;;;11.20;7.20;;;;;;;34.03;27.82;99591.72;5060110;28;20088;-68
2022/06/28 01:29:54;;;;;;;11.68;6.63;;;;;;;33.90;27.72;99594.53;5076699;28;20086;-67
2022/06/28 01:32:36;;;;;;;11.77;7.07;;;;;;;33.65;27.72;99575.81;5093131;28;20058;-68
2022/06/28 01:35:07;;;;;;;15.45;7.03;;;;;;;33.69;28.31;99596.13;5060077;28;20043;-67
2022/06/28 01:37:34;;;;;;;13.30;7.05;;;;;;;33.61;28.20;99585.81;5092893;28;20032;-68
2022/06/28 01:40:03;;;;;;;16.10;7.38;;;;;;;33.57;28.22;99591.13;5076229;28;20040;-70
2022/06/28 01:42:30;;;;;;;9.27;7.28;;;;;;;33.38;28.06;99595.13;5076156;28;20063;-68
2022/06/28 01:44:58;;;;;;;10.98;6.60;;;;;;;33.33;28.17;99589.72;5076478;28;20044;-68
2022/06/28 01:47:34;;;;;;;12.93;7.05;;;;;;;33.25;28.76;99590.44;5078025;28;20047;-67
2022/06/28 01:50:00;;;;;;;18.10;7.05;;;;;;;33.64;28.00;99593.47;5111046;28;20044;-67
2022/06/28 01:52:29;;;;;;;18.07;7.60;;;;;;;33.30;28.46;99591.16;5077081;28;20054;-69
2022/06/28 01:54:58;;;;;;;14.13;7.40;;;;;;;33.31;28.79;99600.22;5092471;28;20046;-69
2022/06/28 01:57:24;;;;;;;7.57;6.60;;;;;;;33.36;28.49;99602.88;5059724;28;20560;-68
2022/06/28 01:59:55;;;;;;;18.95;6.93;;;;;;;33.39;28.54;99599.53;5092944;28;20047;-69
2022/06/28 02:02:41;;;;;;;13.73;7.50;;;;;;;33.38;28.14;99597.88;5078640;28;20505;-68
2022/06/28 02:05:25;;;;;;;9.93;7.40;;;;;;;33.36;28.19;99592.69;5096388;28;20050;-68
2022/06/28 02:07:52;;;;;;;14.50;7.28;;;;;;;33.10;28.55;99588.81;5079889;28;20423;-69
2022/06/28 02:10:21;;;;;;;15.93;7.10;;;;;;;33.18;28.44;99601.88;5080115;28;20047;-69
2022/06/28 02:12:47;;;;;;;16.95;7.22;;;;;;;33.08;27.84;99595.72;5063113;28;20049;-68
2022/06/28 02:15:13;;;;;;;8.07;6.80;;;;;;;33.06;28.24;99601.53;5079480;28;20043;-69
2022/06/28 02:17:42;;;;;;;9.95;6.45;;;;;;;33.02;28.64;99611.56;5096819;28;20050;-68
2022/06/28 02:20:09;;;;;;;12.55;7.22;;;;;;;32.94;28.59;99611.47;5079865;28;20051;-69
2022/06/28 02:22:36;;;;;;;11.85;7.13;;;;;;;32.85;28.96;99610.47;5079668;28;20518;-69
2022/06/28 02:25:02;;;;;;;15.68;7.90;;;;;;;32.80;28.91;99608.63;5096198;28;20039;-70
2022/06/28 02:27:28;;;;;;;13.07;6.50;;;;;;;32.82;28.78;99611.09;5080148;28;20450;-68
2022/06/28 02:29:54;;;;;;;10.63;7.38;;;;;;;32.76;28.78;99602.13;5079641;28;20047;-68
2022/06/28 02:32:20;;;;;;;12.90;7.25;;;;;;;32.64;27.86;99613.59;5096670;28;20055;-68
2022/06/28 02:40:24;;;;;;;12.60;7.28;;;;;;;32.72;28.81;99616.78;5044673;28;20139;-69
2022/06/28 02:42:55;;;;;;;13.85;7.53;;;;;;;32.90;29.18;99615.91;5077218;28;20056;-68
2022/06/28 02:45:23;;;;;;;22.73;7.53;;;;;;;32.85;28.63;99624.22;5058991;28;20040;-68
2022/06/28 02:47:49;;;;;;;17.63;7.70;;;;;;;32.79;29.58;99625.44;5091407;28;20152;-69
2022/06/28 02:50:15;;;;;;;14.23;6.60;;;;;;;32.90;29.33;99624.16;5058770;28;20110;-69
2022/06/28 02:52:41;;;;;;;13.10;7.15;;;;;;;33.03;28.79;99618.69;5074967;28;20126;-67
2022/06/28 02:55:07;;;;;;;12.10;7.20;;;;;;;33.16;28.72;99636.31;5041897;28;20036;-69
2022/06/28 02:57:34;;;;;;;10.43;7.40;;;;;;;33.15;28.70;99615.44;5074864;28;20039;-68
2022/06/28 03:00:02;;;;;;;9.50;6.85;;;;;;;33.34;28.63;99633.47;5073489;28;20047;-69
2022/06/28 03:02:30;;;;;;;11.13;6.93;;;;;;;33.32;28.88;99632.16;5058223;28;20067;-68
2022/06/28 03:04:55;;;;;;;22.65;7.35;;;;;;;33.37;28.84;99632.84;5058635;28;20075;-69
2022/06/28 03:07:22;;;;;;;11.57;6.65;;;;;;;33.25;28.40;99610.53;5079526;28;20517;-69
2022/06/28 03:09:47;;;;;;;8.85;6.60;;;;;;;33.41;28.13;99630.34;5067398;28;20032;-70
2022/06/28 03:12:16;;;;;;;12.32;7.03;;;;;;;33.25;28.45;99610.53;5065719;28;20044;-69
2022/06/28 03:14:41;;;;;;;17.67;7.25;;;;;;;33.41;27.96;99630.34;5076359;28;20492;-71
2022/06/28 03:17:15;;;;;;;13.73;6.40;;;;;;;33.39;27.89;99638.09;5051522;28;20503;-69
2022/06/28 03:19:42;;;;;;;10.95;6.75;;;;;;;33.37;28.53;99641.09;5073827;28;20511;-69
2022/06/28 03:22:08;;;;;;;13.50;7.55;;;;;;;33.43;28.47;99648.16;5073714;28;20047;-69
2022/06/28 03:24:33;;;;;;;16.15;7.35;;;;;;;33.43;28.68;99658.41;5092326;28;20048;-69
2022/06/28 03:26:59;;;;;;;15.55;7.63;;;;;;;33.39;28.75;99663.69;5074845;28;20040;-69
2022/06/28 03:29:25;;;;;;;13.88;6.97;;;;;;;33.35;28.53;99645.31;5091232;28;20063;-69
2022/06/28 03:31:51;;;;;;;15.63;7.05;;;;;;;33.46;28.57;99668.78;5040240;28;20499;-69
2022/06/28 03:34:19;;;;;;;12.32;6.65;;;;;;;33.42;28.36;99659.50;5090197;28;20498;-69
2022/06/28 03:36:46;;;;;;;16.10;6.57;;;;;;;33.43;28.81;99670.19;5040766;28;20555;-70
2022/06/28 03:39:44;;;;;;;14.93;6.38;;;;;;;33.40;28.14;99665.31;5083198;28;20097;-68
2022/06/28 03:42:10;;;;;;;24.40;7.13;;;;;;;33.56;28.65;99671.31;5090128;28;20055;-69
2022/06/28 03:44:38;;;;;;;14.75;6.80;;;;;;;33.53;28.78;99653.47;5073863;28;20134;-68
2022/06/28 03:47:06;;;;;;;20.50;6.93;;;;;;;33.60;28.42;99661.31;5057608;28;20097;-68
2022/06/28 03:49:50;;;;;;;14.32;6.65;;;;;;;33.60;28.39;99659.38;5076342;28;20082;-68
2022/06/28 03:52:46;;;;;;;11.18;6.40;;;;;;;33.67;27.55;99661.72;5044456;28;20139;-66
2022/06/28 03:55:43;;;;;;;11.05;6.57;;;;;;;33.55;28.27;99661.44;5052245;28;20038;-67
2022/06/28 03:58:09;;;;;;;17.95;6.57;;;;;;;33.27;28.68;99668.03;5062728;28;20119;-67
2022/06/28 04:00:35;;;;;;;11.45;6.45;;;;;;;33.04;28.72;99675.38;5035321;28;20190;-67
2022/06/28 04:03:02;;;;;;;12.05;7.07;;;;;;;32.70;29.40;99661.09;5032770;28;20068;-70
2022/06/28 04:05:37;;;;;;;9.27;6.85;;;;;;;32.39;30.11;99654.47;5032612;28;20131;-69
2022/06/28 04:08:03;;;;;;;13.85;7.13;;;;;;;32.10;30.52;99642.81;5070762;28;20093;-69
2022/06/28 04:10:43;;;;;;;16.43;6.57;;;;;;;32.15;31.05;99670.25;5059961;28;20070;-67
2022/06/28 04:13:16;;;;;;;14.55;7.15;;;;;;;32.18;31.21;99667.69;5056538;28;20284;-69
2022/06/28 04:15:42;;;;;;;14.63;7.20;;;;;;;31.84;31.54;99669.88;5071760;28;20154;-68
2022/06/28 04:18:11;;;;;;;13.52;7.72;;;;;;;31.72;31.82;99660.41;5070794;28;20169;-68
2022/06/28 04:20:41;;;;;;;13.07;7.50;;;;;;;32.24;30.92;99662.94;5069680;28;20134;-69
2022/06/28 04:23:08;;;;;;;12.27;7.55;;;;;;;31.92;31.71;99671.94;5069205;28;20063;-68
2022/06/28 04:25:35;;;;;;;15.25;7.28;;;;;;;31.99;31.54;99657.84;5054045;28;20047;-68
2022/06/28 04:28:12;;;;;;;11.88;7.13;;;;;;;32.22;31.14;99670.66;5056542;28;20511;-68
2022/06/28 04:30:45;;;;;;;13.77;7.50;;;;;;;31.85;31.76;99662.44;5055005;28;20046;-67
2022/06/28 04:33:11;;;;;;;16.63;7.00;;;;;;;31.90;31.91;99670.59;5088842;28;20044;-67
2022/06/28 04:35:37;;;;;;;8.73;6.82;;;;;;;31.87;31.92;99674.78;5055978;28;20062;-68
2022/06/28 04:38:04;;;;;;;9.48;6.75;;;;;;;31.79;31.90;99680.88;5039509;28;20044;-67
2022/06/28 04:40:55;;;;;;;26.05;7.35;;;;;;;31.87;31.95;99676.69;5076171;28;20055;-67
2022/06/28 04:43:47;;;;;;;15.00;7.13;;;;;;;31.87;31.85;99677.53;5039726;28;20051;-67
2022/06/28 04:46:20;;;;;;;14.70;6.38;;;;;;;32.03;32.03;99683.63;5073538;28;20052;-67
2022/06/28 04:48:47;;;;;;;21.33;7.22;;;;;;;32.11;31.52;99685.69;5089033;28;20075;-67
2022/06/28 04:51:14;;;;;;;14.25;6.55;;;;;;;32.08;31.95;99684.34;5070365;28;20063;-67
2022/06/28 04:53:47;;;;;;;17.90;7.20;;;;;;;32.11;31.75;99656.28;5089215;28;20073;-66
2022/06/28 04:56:16;;;;;;;12.90;6.65;;;;;;;32.18;31.37;99677.88;5072853;28;20043;-67
2022/06/28 04:58:48;;;;;;;14.77;7.00;;;;;;;32.18;31.71;99678.69;5072820;28;20123;-67
2022/06/28 05:01:14;;;;;;;14.25;7.07;;;;;;;32.25;31.40;99681.06;5072022;28;20135;-67
2022/06/28 05:03:40;;;;;;;10.77;6.90;;;;;;;32.21;31.32;99680.84;5072403;28;20126;-68
2022/06/28 05:06:09;;;;;;;14.93;7.57;;;;;;;32.16;31.57;99678.19;5072837;28;20043;-67
2022/06/28 05:08:35;;;;;;;14.57;7.05;;;;;;;32.10;31.64;99684.88;5039321;28;20051;-69
2022/06/28 05:11:03;;;;;;;10.98;7.38;;;;;;;32.17;31.89;99687.22;5088994;28;20565;-69
2022/06/28 05:13:49;;;;;;;17.67;10.30;;;;;;;32.23;31.57;99677.81;5051887;28;20111;-68
2022/06/28 05:16:16;;;;;;;13.68;7.47;;;;;;;32.36;31.54;99691.66;5074885;28;20040;-68
2022/06/28 05:18:46;;;;;;;14.55;7.35;;;;;;;32.31;31.84;99680.69;5075281;28;20043;-68
2022/06/28 05:21:15;;;;;;;14.45;7.10;;;;;;;32.44;31.68;99679.16;5076473;28;20069;-68
2022/06/28 05:23:43;;;;;;;16.17;7.55;;;;;;;32.59;31.43;99685.22;5076212;28;20054;-67
2022/06/28 05:26:28;;;;;;;14.38;7.88;;;;;;;32.80;31.07;99685.66;5081019;28;20035;-68
2022/06/28 05:29:11;;;;;;;14.88;7.72;;;;;;;32.94;30.46;99685.75;5092201;28;20047;-68
2022/06/28 05:31:38;;;;;;;15.73;7.57;;;;;;;33.01;30.74;99678.72;5058699;28;20100;-69
2022/06/28 05:34:03;;;;;;;17.60;7.63;;;;;;;33.09;30.40;99679.97;5057774;28;20044;-68
2022/06/28 05:36:29;;;;;;;14.88;7.97;;;;;;;33.19;30.34;99683.34;5075638;28;20116;-68
2022/06/28 05:38:56;;;;;;;22.85;8.13;;;;;;;33.24;30.38;99697.00;5075010;28;20039;-68
2022/06/28 05:41:22;;;;;;;24.02;7.85;;;;;;;33.25;30.27;99679.34;5094107;28;20036;-68
2022/06/28 05:43:48;;;;;;;12.07;7.90;;;;;;;33.30;30.51;99695.78;5078978;28;20097;-68
2022/06/28 05:46:14;;;;;;;19.95;7.90;;;;;;;33.36;30.53;99691.81;5096230;28;20054;-68
2022/06/28 05:48:40;;;;;;;9.98;7.15;;;;;;;33.30;29.86;99687.53;5096296;28;20051;-67
2022/06/28 05:51:05;;;;;;;17.38;7.97;;;;;;;33.27;29.86;99688.13;5045345;28;20662;-67
2022/06/28 05:53:31;;;;;;;19.65;7.60;;;;;;;33.33;29.69;99691.59;5062611;28;20122;-67
2022/06/28 05:55:59;;;;;;;13.75;6.82;;;;;;;33.35;29.44;99689.38;5079448;28;20043;-67
2022/06/28 05:58:25;;;;;;;14.80;7.47;;;;;;;33.31;29.19;99696.59;5079018;28;20050;-67
2022/06/28 06:00:51;;;;;;;17.75;7.35;;;;;;;33.44;29.22;99691.13;5045270;28;20126;-66
2022/06/28 06:03:17;;;;;;;13.77;6.65;;;;;;;33.48;28.68;99702.34;5093989;28;20495;-68
2022/06/28 06:05:43;;;;;;;15.13;7.13;;;;;;;33.46;28.30;99693.59;5078574;28;20040;-67
2022/06/28 06:08:10;;;;;;;15.98;7.20;;;;;;;33.50;28.48;99697.34;5045851;28;20116;-68
2022/06/28 06:10:37;;;;;;;17.85;7.00;;;;;;;33.52;28.41;99711.63;5078793;28;20565;-68
2022/06/28 06:13:04;;;;;;;15.75;6.82;;;;;;;33.64;28.56;99700.91;5044716;28;20036;-68
2022/06/28 06:15:30;;;;;;;13.82;7.15;;;;;;;33.71;28.47;99687.53;5045246;28;20058;-69
2022/06/28 06:17:56;;;;;;;17.88;6.65;;;;;;;33.83;27.96;99694.16;5045125;28;20039;-69
2022/06/28 06:20:24;;;;;;;20.50;7.50;;;;;;;33.91;28.13;99700.91;5078816;28;20228;-69
2022/06/28 06:22:50;;;;;;;16.50;6.60;;;;;;;33.97;27.78;99694.97;5045362;28;20607;-69
2022/06/28 06:25:48;;;;;;;16.00;6.40;;;;;;;34.01;27.65;99701.47;5058409;28;20043;-69
2022/06/28 06:28:14;;;;;;;14.52;6.65;;;;;;;33.98;27.41;99701.31;5062202;28;20075;-69
2022/06/28 06:30:41;;;;;;;16.40;6.20;;;;;;;33.82;27.17;99694.44;5045012;28;20079;-69
2022/06/28 06:33:16;;;;;;;16.40;6.20;;;;;;;33.74;27.39;99692.41;5062586;28;20040;-69
2022/06/28 06:36:17;;;;;;;14.95;6.80;;;;;;;33.81;27.14;99695.59;5013994;28;20089;-69
2022/06/28 06:38:43;;;;;;;20.67;6.72;;;;;;;33.84;26.63;99698.53;5032492;28;20427;-69
2022/06/28 06:41:09;;;;;;;9.98;6.93;;;;;;;33.87;26.55;99705.38;5044605;28;20035;-70
2022/06/28 06:43:37;;;;;;;10.95;5.32;;;;;;;33.93;26.17;99699.47;5078496;28;20055;-69
2022/06/28 06:46:12;;;;;;;15.80;6.00;;;;;;;33.96;26.18;99700.78;5079231;28;20050;-69
2022/06/28 06:48:38;;;;;;;13.63;6.28;;;;;;;34.07;26.07;99704.97;5057641;28;20051;-69
2022/06/28 06:51:04;;;;;;;13.10;5.78;;;;;;;34.20;26.13;99709.59;5041596;28;20408;-69
2022/06/28 06:53:30;;;;;;;8.63;5.50;;;;;;;34.38;25.89;99711.44;5056937;28;20079;-68
2022/06/28 06:55:56;;;;;;;15.57;5.35;;;;;;;34.45;25.35;99705.47;5024697;28;20071;-70
2022/06/28 06:58:22;;;;;;;7.20;4.90;;;;;;;34.45;24.90;99706.28;5041112;28;20135;-68
2022/06/28 07:00:49;;;;;;;9.25;4.70;;;;;;;34.49;24.70;99712.78;5074243;28;20055;-69
2022/06/28 07:03:16;;;;;;;7.20;4.95;;;;;;;34.69;24.88;99706.78;5041160;28;20086;-70
2022/06/28 07:05:42;;;;;;;11.48;4.90;;;;;;;34.67;24.49;99709.06;5057690;28;20066;-69
2022/06/28 07:08:08;;;;;;;10.32;5.03;;;;;;;34.73;24.20;99716.06;5040741;28;20902;-69
2022/06/28 07:10:42;;;;;;;12.38;4.97;;;;;;;34.87;24.26;99713.28;5041878;28;20035;-69
2022/06/28 07:13:08;;;;;;;11.43;4.82;;;;;;;34.99;24.47;99717.09;5072933;28;20050;-69
2022/06/28 07:15:35;;;;;;;7.38;4.47;;;;;;;35.22;23.60;99713.16;5024358;28;20477;-69
2022/06/28 07:18:02;;;;;;;8.95;4.30;;;;;;;35.56;23.10;99716.09;5040875;28;20040;-71
2022/06/28 07:20:29;;;;;;;11.55;4.28;;;;;;;35.91;22.27;99721.72;5041004;28;20036;-69
2022/06/28 07:22:55;;;;;;;14.48;4.10;;;;;;;35.95;21.99;99722.72;5040822;28;20471;-70
2022/06/28 07:25:21;;;;;;;15.13;4.38;;;;;;;36.13;21.86;99716.88;5056258;28;20043;-70
2022/06/28 07:27:48;;;;;;;13.40;4.15;;;;;;;36.45;21.09;99726.69;5056454;28;20086;-69
2022/06/28 07:30:14;;;;;;;10.27;3.85;;;;;;;36.83;20.71;99728.47;5057052;28;20486;-68
2022/06/28 07:32:39;;;;;;;11.00;3.88;;;;;;;37.20;20.04;99727.72;5040343;28;20051;-69
2022/06/28 07:35:07;;;;;;;9.05;4.10;;;;;;;37.72;19.47;99733.09;5040246;28;20044;-69
2022/06/28 07:37:33;;;;;;;7.53;3.72;;;;;;;38.19;18.55;99732.66;5073455;28;20097;-70
2022/06/28 07:40:02;;;;;;;10.07;3.78;;;;;;;38.93;17.73;99727.13;5057277;28;20411;-68
2022/06/28 07:42:37;;;;;;;10.45;3.80;;;;;;;39.75;16.88;99732.38;5075034;28;20105;-69
2022/06/28 07:45:23;;;;;;;12.38;3.92;;;;;;;40.85;15.83;99725.44;5058884;28;20142;-68
2022/06/28 07:47:57;;;;;;;18.33;3.60;;;;;;;42.56;14.42;99740.13;5041463;28;20039;-69
2022/06/28 07:53:16;;;;;;;7.68;2.85;;;;;;;45.74;11.19;99750.09;5016799;28;20083;-68
2022/06/28 07:56:13;;;;;;;8.35;2.85;;;;;;;47.64;9.61;99758.19;5045859;28;20166;-70
2022/06/28 07:58:40;;;;;;;11.27;3.28;;;;;;;49.25;8.46;99752.47;5054305;28;20130;-68
2022/06/28 08:01:10;;;;;;;11.75;2.97;;;;;;;49.80;7.58;99754.06;5055332;28;20051;-68
2022/06/28 08:03:36;;;;;;;8.80;2.58;;;;;;;50.35;7.68;99751.09;5054566;28;20160;-70
2022/06/28 08:06:02;;;;;;;11.95;2.70;;;;;;;50.75;7.23;99746.59;5055730;28;20044;-69
2022/06/28 08:08:36;;;;;;;10.48;2.60;;;;;;;51.84;6.16;99765.56;5073754;28;20036;-67
2022/06/28 08:11:04;;;;;;;9.73;2.22;;;;;;;52.58;6.23;99759.25;5040069;28;20632;-70
2022/06/28 08:13:30;;;;;;;10.52;2.60;;;;;;;53.42;5.19;99748.06;5072199;28;20048;-69
2022/06/28 08:15:59;;;;;;;8.27;2.50;;;;;;;53.66;5.06;99751.53;5072749;28;20044;-68
2022/06/28 08:18:27;;;;;;;17.27;2.55;;;;;;;54.14;5.03;99760.00;5073176;28;20039;-68
2022/06/28 08:20:53;;;;;;;7.78;2.30;;;;;;;54.30;5.23;99751.44;5039619;28;20048;-69
2022/06/28 08:23:19;;;;;;;10.10;2.60;;;;;;;54.64;4.54;99765.91;5023013;28;20098;-68
2022/06/28 08:25:46;;;;;;;7.35;2.08;;;;;;;54.20;4.46;99763.88;5072568;28;20044;-69
2022/06/28 08:28:13;;;;;;;8.38;2.13;;;;;;;53.96;4.59;99771.06;5072510;28;20047;-68
2022/06/28 08:30:40;;;;;;;5.03;2.00;;;;;;;54.18;4.58;99755.78;5055905;28;20048;-68
2022/06/28 08:33:06;;;;;;;7.28;1.92;;;;;;;53.83;4.77;99775.84;5055726;28;20462;-69
2022/06/28 08:35:34;;;;;;;9.32;2.20;;;;;;;54.15;4.30;99773.75;5055925;28;20097;-69
2022/06/28 08:38:01;;;;;;;10.75;2.10;;;;;;;54.83;4.07;99771.44;5073262;28;20051;-68
2022/06/28 08:40:28;;;;;;;4.97;1.90;;;;;;;55.11;3.69;99777.47;5055547;28;20503;-69
2022/06/28 08:42:55;;;;;;;7.03;2.83;;;;;;;55.84;3.36;99783.59;5071964;28;20044;-68
2022/06/28 08:45:21;;;;;;;10.00;2.58;;;;;;;56.47;3.28;99736.94;5089871;28;20051;-69
2022/06/28 08:47:53;;;;;;;11.07;2.33;;;;;;;57.30;2.58;99767.06;5058293;28;20181;-69
2022/06/28 08:50:32;;;;;;;5.43;1.60;;;;;;;57.36;2.09;99764.41;5055574;28;20044;-69
2022/06/28 08:53:01;;;;;;;8.73;2.25;;;;;;;57.33;2.80;99771.84;5090205;28;20515;-69
2022/06/28 08:55:29;;;;;;;15.77;2.25;;;;;;;57.94;2.02;99768.03;5022203;28;20040;-68
2022/06/28 08:57:55;;;;;;;6.73;1.60;;;;;;;58.44;1.33;99781.72;5071462;28;20433;-70
2022/06/28 09:00:21;;;;;;;15.52;1.95;;;;;;;58.64;1.31;99779.13;5062011;28;20130;-69
2022/06/28 09:02:47;;;;;;;8.82;2.13;;;;;;;58.82;1.53;99779.09;5070200;28;20118;-71
2022/06/28 09:05:13;;;;;;;11.95;1.80;;;;;;;58.91;1.14;99770.50;5045770;28;20040;-69
2022/06/28 09:07:39;;;;;;;13.52;2.17;;;;;;;58.70;1.40;99765.78;5021966;28;20040;-68
2022/06/28 09:10:05;;;;;;;9.30;1.63;;;;;;;58.71;1.47;99767.41;5022057;28;20043;-68
2022/06/28 09:12:35;;;;;;;8.45;1.50;;;;;;;58.90;1.57;99777.50;5054509;28;20127;-68
2022/06/28 09:15:04;;;;;;;10.98;1.60;;;;;;;58.93;1.20;99767.94;5091656;28;20055;-68
2022/06/28 09:17:33;;;;;;;9.95;1.70;;;;;;;59.12;0.86;99767.91;5080851;28;20455;-68
2022/06/28 09:20:07;;;;;;;13.45;2.13;;;;;;;58.90;1.17;99756.66;5082553;28;20507;-69
2022/06/28 09:22:36;;;;;;;7.60;2.00;;;;;;;58.21;1.11;99770.91;5091865;28;20053;-71
2022/06/28 09:25:33;;;;;;;5.65;2.20;;;;;;;58.65;1.10;99765.63;5058595;28;20063;-70
2022/06/28 09:28:01;;;;;;;8.40;1.65;;;;;;;59.37;0.79;99756.00;5065881;28;20050;-70
2022/06/28 09:30:29;;;;;;;4.68;1.23;;;;;;;59.85;0.84;99772.78;5074751;28;20046;-69
2022/06/28 09:32:56;;;;;;;9.43;1.40;;;;;;;59.84;0.46;99773.28;5088308;28;20121;-69
2022/06/28 09:35:24;;;;;;;7.07;1.60;;;;;;;60.12;0.16;99778.31;5044858;28;20073;-69
2022/06/28 09:37:51;;;;;;;7.22;1.73;;;;;;;60.42;0.50;99785.69;5097741;28;20039;-69
2022/06/28 09:40:22;;;;;;;4.72;1.20;;;;;;;60.52;0.09;99766.28;5064250;28;20503;-69
2022/06/28 09:43:06;;;;;;;5.20;1.60;;;;;;;59.94;0.23;99775.56;5054624;28;20089;-68
2022/06/28 09:45:32;;;;;;;10.77;1.58;;;;;;;60.06;0.25;99770.84;5071447;28;20801;-69
2022/06/28 09:47:58;;;;;;;5.75;1.65;;;;;;;60.05;0.31;99764.31;5085856;28;20507;-68
2022/06/28 09:50:23;;;;;;;4.78;1.38;;;;;;;60.22;0.01;99768.31;5052801;28;20053;-66
2022/06/28 09:52:50;;;;;;;7.93;1.20;;;;;;;60.06;0.00;99756.50;5058898;28;20032;-69
2022/06/28 09:55:17;;;;;;;11.38;1.48;;;;;;;59.61;0.00;99763.34;5085882;28;20044;-68
2022/06/28 09:57:47;;;;;;;8.10;0.82;;;;;;;59.17;0.39;99747.97;5037414;28;20109;-68
2022/06/28 10:00:16;;;;;;;9.73;1.30;;;;;;;58.68;0.30;99754.00;5089084;28;20094;-69
2022/06/28 10:02:43;;;;;;;13.50;1.40;;;;;;;58.26;0.42;99746.59;5047672;28;20039;-67
2022/06/28 10:05:10;;;;;;;4.85;1.13;;;;;;;58.65;0.00;99745.59;5079809;28;20036;-68
2022/06/28 10:07:37;;;;;;;6.70;1.25;;;;;;;58.96;0.00;99760.47;5064200;28;20036;-68
2022/06/28 10:10:07;;;;;;;4.95;1.10;;;;;;;59.31;0.00;99755.88;5098578;28;20035;-72
2022/06/28 10:15:20;;;;;;;5.18;0.90;;;;;;;59.15;0.00;99758.34;5081089;28;20130;-69
2022/06/28 10:17:56;;;;;;;3.65;1.25;;;;;;;59.15;0.00;99767.72;5087809;28;20035;-70
2022/06/28 10:20:26;;;;;;;5.53;1.10;;;;;;;59.19;0.00;99748.28;5073063;28;20151;-68
2022/06/28 10:23:11;;;;;;;5.00;1.25;;;;;;;58.93;0.00;99747.88;5072723;28;20462;-70
2022/06/28 10:25:39;;;;;;;8.00;1.70;;;;;;;59.06;0.00;99754.22;5087602;28;20040;-69
2022/06/28 10:28:25;;;;;;;5.32;1.20;;;;;;;59.53;0.00;99752.72;5086222;28;20453;-69
2022/06/28 10:31:23;;;;;;;4.07;1.05;;;;;;;59.70;0.00;99751.81;5090731;28;20056;-69
2022/06/28 10:33:56;;;;;;;4.90;1.15;;;;;;;59.40;0.00;99752.16;5060003;28;20190;-68
2022/06/28 10:36:23;;;;;;;7.15;1.10;;;;;;;59.13;0.00;99730.16;5056192;28;20043;-69
2022/06/28 10:39:01;;;;;;;3.77;1.20;;;;;;;59.07;0.00;99738.63;5074587;28;20047;-70
2022/06/28 10:41:48;;;;;;;3.35;1.20;;;;;;;58.80;0.00;99733.00;5057799;28;20278;-69
2022/06/28 10:44:19;;;;;;;8.85;1.30;;;;;;;57.64;0.10;99720.31;5074525;28;20416;-69
2022/06/28 10:46:51;;;;;;;9.20;2.45;;;;;;;57.01;0.02;99737.28;5074492;28;20039;-70
2022/06/28 10:49:18;;;;;;;3.55;1.10;;;;;;;56.84;0.00;99735.91;5074061;28;20044;-69
2022/06/28 10:52:21;;;;;;;12.80;1.80;;;;;;;56.96;0.10;99732.19;5074308;28;20058;-68
2022/06/28 10:54:57;;;;;;;4.70;1.10;;;;;;;56.80;0.40;99726.66;5074070;28;20055;-68
2022/06/28 10:57:24;;;;;;;3.60;1.10;;;;;;;55.90;0.78;99730.44;5092111;28;20574;-69
2022/06/28 10:59:52;;;;;;;5.65;1.00;;;;;;;55.35;0.57;99739.66;5072974;28;20047;-68
2022/06/28 11:02:18;;;;;;;6.82;1.13;;;;;;;54.73;1.00;99723.34;5072959;28;20050;-68
2022/06/28 11:04:45;;;;;;;6.22;1.10;;;;;;;53.54;2.05;99718.13;5057729;28;20043;-68
2022/06/28 11:07:23;;;;;;;10.13;1.20;;;;;;;52.82;2.13;99694.72;5090968;28;20051;-68
2022/06/28 11:10:00;;;;;;;4.20;1.10;;;;;;;51.67;2.40;99712.84;5092459;28;20109;-68
2022/06/28 11:12:32;;;;;;;4.35;1.08;;;;;;;49.93;3.43;99712.75;5091922;28;20128;-68
2022/06/28 11:15:05;;;;;;;5.57;0.90;;;;;;;48.41;4.02;99712.19;5092152;28;20571;-67
2022/06/28 11:17:35;;;;;;;4.93;1.15;;;;;;;47.48;4.75;99709.13;5074555;28;20047;-67
2022/06/28 11:20:03;;;;;;;6.72;1.10;;;;;;;46.43;5.31;99712.44;5074091;28;20044;-68
2022/06/28 11:22:50;;;;;;;5.00;1.20;;;;;;;45.42;5.95;99701.31;5057543;28;20121;-67
2022/06/28 11:25:20;;;;;;;4.80;1.30;;;;;;;44.50;6.30;99680.69;5073744;28;20495;-68
2022/06/28 11:27:53;;;;;;;7.10;1.33;;;;;;;43.98;6.61;99714.38;5073859;28;20043;-67
2022/06/28 11:30:20;;;;;;;27.75;1.50;;;;;;;43.68;6.78;99712.69;5024484;28;20048;-68
2022/06/28 11:32:51;;;;;;;10.20;1.52;;;;;;;43.42;6.93;99696.66;5057062;28;20396;-68
2022/06/28 11:35:27;;;;;;;10.10;1.42;;;;;;;42.75;7.45;99697.44;5074032;28;20503;-67
2022/06/28 11:38:09;;;;;;;6.35;1.30;;;;;;;42.04;8.03;99697.88;5056088;28;20042;-68
2022/06/28 11:40:49;;;;;;;8.27;1.58;;;;;;;41.27;8.46;99709.91;5057570;28;20090;-67
2022/06/28 11:43:16;;;;;;;;;;;;;;;40.86;9.22;99704.78;5074530;28;20404;-67
2022/06/28 11:45:49;;;;;;;10.32;1.30;;;;;;;40.68;9.25;99700.69;5056976;28;20290;-67
2022/06/28 11:48:19;;;;;;;9.18;1.42;;;;;;;40.36;9.36;99694.19;5055878;28;20535;-67
2022/06/28 11:50:53;;;;;;;6.85;1.60;;;;;;;40.18;10.08;99709.53;5073188;28;20548;-67
2022/06/28 11:53:23;;;;;;;2.28;1.23;;;;;;;39.76;9.89;99700.66;5056665;28;20448;-67
2022/06/28 11:55:50;;;;;;;4.75;1.48;;;;;;;39.63;9.83;99709.31;5074103;28;20557;-67
2022/06/28 11:58:26;;;;;;;7.57;1.42;;;;;;;39.45;10.52;99702.38;5056024;28;20131;-67